createdAt,value
2016-07-08T00:00:39.100Z,1007.29
2016-07-08T00:01:39.082Z,1007.32
2016-07-08T00:02:39.064Z,1007.32
2016-07-08T00:03:39.046Z,1007.32
2016-07-08T00:04:39.029Z,1007.29
2016-07-08T00:05:39.011Z,1007.28
2016-07-08T00:06:38.992Z,1007.32
2016-07-08T00:07:38.975Z,1007.26
2016-07-08T00:08:38.956Z,1007.24
2016-07-08T00:09:38.939Z,1007.26
2016-07-08T00:10:38.921Z,1007.21
2016-07-08T00:11:38.903Z,1007.21
2016-07-08T00:12:38.885Z,1007.21
2016-07-08T00:13:38.866Z,1007.18
2016-07-08T00:14:38.849Z,1007.17
2016-07-08T00:15:38.831Z,1007.19
2016-07-08T00:16:38.814Z,1007.17
2016-07-08T00:17:38.795Z,1007.12
2016-07-08T00:18:38.778Z,1007.13
2016-07-08T00:19:38.760Z,1007.1
2016-07-08T00:20:38.742Z,1007.11
2016-07-08T00:21:38.724Z,1007.12
2016-07-08T00:22:38.706Z,1007.13
2016-07-08T00:23:38.689Z,1007.13
2016-07-08T00:24:38.671Z,1007.1
2016-07-08T00:25:38.653Z,1007.14
2016-07-08T00:26:38.635Z,1007.17
2016-07-08T00:27:38.617Z,1007.15
2016-07-08T00:28:38.598Z,1007.18
2016-07-08T00:29:38.580Z,1007.17
2016-07-08T00:30:38.563Z,1007.18
2016-07-08T00:31:38.545Z,1007.14
2016-07-08T00:32:38.528Z,1007.13
2016-07-08T00:33:38.509Z,1007.1
2016-07-08T00:34:38.492Z,1007.13
2016-07-08T00:35:38.475Z,1007.08
2016-07-08T00:36:38.457Z,1007.07
2016-07-08T00:37:38.439Z,1007.05
2016-07-08T00:38:38.422Z,1007.03
2016-07-08T00:39:38.403Z,1007.01
2016-07-08T00:40:38.385Z,1006.97
2016-07-08T00:41:38.368Z,1006.96
2016-07-08T00:42:38.350Z,1006.96
2016-07-08T00:43:38.333Z,1006.93
2016-07-08T00:44:38.314Z,1006.96
2016-07-08T00:45:38.297Z,1006.97
2016-07-08T00:46:38.279Z,1006.95
2016-07-08T00:47:38.260Z,1006.94
2016-07-08T00:48:38.243Z,1006.98
2016-07-08T00:49:38.227Z,1007.01
2016-07-08T00:50:38.206Z,1006.99
2016-07-08T00:51:38.189Z,1006.96
2016-07-08T00:52:38.171Z,1006.99
2016-07-08T00:53:38.164Z,1006.96
2016-07-08T00:54:38.135Z,1006.97
2016-07-08T00:55:38.117Z,1006.97
2016-07-08T00:56:38.107Z,1007.01
2016-07-08T00:57:38.086Z,1006.95
2016-07-08T00:58:38.064Z,1006.97
2016-07-08T00:59:38.047Z,1006.95
2016-07-08T01:00:38.030Z,1006.95
2016-07-08T01:01:38.010Z,1006.91
2016-07-08T01:02:37.993Z,1006.89
2016-07-08T01:03:37.976Z,1006.85
2016-07-08T01:04:37.958Z,1006.89
2016-07-08T01:05:37.942Z,1006.86
2016-07-08T01:06:37.922Z,1006.82
2016-07-08T01:07:37.907Z,1006.79
2016-07-08T01:08:37.886Z,1006.84
2016-07-08T01:09:37.871Z,1006.81
2016-07-08T01:10:37.851Z,1006.78
2016-07-08T01:11:37.834Z,1006.79
2016-07-08T01:12:37.816Z,1006.76
2016-07-08T01:13:37.797Z,1006.76
2016-07-08T01:14:37.781Z,1006.74
2016-07-08T01:15:37.761Z,1006.75
2016-07-08T01:16:37.744Z,1006.69
2016-07-08T01:17:37.726Z,1006.7
2016-07-08T01:18:37.708Z,1006.7
2016-07-08T01:19:37.692Z,1006.68
2016-07-08T01:20:37.672Z,1006.68
2016-07-08T01:21:37.655Z,1006.68
2016-07-08T01:22:37.640Z,1006.63
2016-07-08T01:23:37.619Z,1006.63
2016-07-08T01:24:37.600Z,1006.59
2016-07-08T01:25:37.582Z,1006.57
2016-07-08T01:26:37.565Z,1006.61
2016-07-08T01:27:37.547Z,1006.61
2016-07-08T01:28:37.529Z,1006.59
2016-07-08T01:29:37.512Z,1006.56
2016-07-08T01:30:37.493Z,1006.56
2016-07-08T01:31:37.476Z,1006.56
2016-07-08T01:32:37.458Z,1006.54
2016-07-08T01:33:37.441Z,1006.52
2016-07-08T01:34:37.423Z,1006.51
2016-07-08T01:35:37.404Z,1006.54
2016-07-08T01:36:37.387Z,1006.52
2016-07-08T01:37:37.378Z,1006.54
2016-07-08T01:38:37.351Z,1006.53
2016-07-08T01:39:37.331Z,1006.51
2016-07-08T01:40:37.314Z,1006.47
2016-07-08T01:41:37.296Z,1006.47
2016-07-08T01:42:37.278Z,1006.48
2016-07-08T01:43:37.262Z,1006.46
2016-07-08T01:44:37.243Z,1006.44
2016-07-08T01:45:37.223Z,1006.44
2016-07-08T01:46:37.205Z,1006.41
2016-07-08T01:47:37.190Z,1006.45
2016-07-08T01:48:37.170Z,1006.39
2016-07-08T01:49:37.153Z,1006.35
2016-07-08T01:50:37.136Z,1006.34
2016-07-08T01:51:37.117Z,1006.33
2016-07-08T01:52:37.099Z,1006.33
2016-07-08T01:53:37.080Z,1006.33
2016-07-08T01:54:37.062Z,1006.35
2016-07-08T01:55:37.044Z,1006.33
2016-07-08T01:56:37.033Z,1006.31
2016-07-08T01:57:37.012Z,1006.29
2016-07-08T01:58:36.990Z,1006.3
2016-07-08T01:59:36.972Z,1006.31
2016-07-08T02:00:36.955Z,1006.29
2016-07-08T02:01:36.936Z,1006.26
2016-07-08T02:02:36.918Z,1006.28
2016-07-08T02:03:36.900Z,1006.25
2016-07-08T02:04:36.881Z,1006.21
2016-07-08T02:05:36.863Z,1006.2
2016-07-08T02:06:36.846Z,1006.16
2016-07-08T02:07:36.825Z,1006.13
2016-07-08T02:08:36.808Z,1006.14
2016-07-08T02:09:36.790Z,1006.11
2016-07-08T02:10:36.772Z,1006.11
2016-07-08T02:11:36.753Z,1006.09
2016-07-08T02:12:36.735Z,1006.09
2016-07-08T02:13:36.717Z,1006.03
2016-07-08T02:14:36.699Z,1006.05
2016-07-08T02:15:36.680Z,1006.01
2016-07-08T02:16:36.662Z,1005.98
2016-07-08T02:17:36.644Z,1005.99
2016-07-08T02:18:36.624Z,1005.96
2016-07-08T02:19:36.606Z,1005.94
2016-07-08T02:20:36.589Z,1005.96
2016-07-08T02:21:36.570Z,1005.91
2016-07-08T02:22:36.551Z,1005.94
2016-07-08T02:23:36.533Z,1005.92
2016-07-08T02:24:36.515Z,1005.93
2016-07-08T02:25:36.497Z,1005.96
2016-07-08T02:26:36.478Z,1005.88
2016-07-08T02:27:36.458Z,1005.9
2016-07-08T02:28:36.441Z,1005.85
2016-07-08T02:29:36.421Z,1005.91
2016-07-08T02:30:36.403Z,1005.9
2016-07-08T02:31:36.385Z,1005.93
2016-07-08T02:32:36.366Z,1005.97
2016-07-08T02:33:36.347Z,1005.95
2016-07-08T02:34:36.328Z,1005.96
2016-07-08T02:35:36.311Z,1005.97
2016-07-08T02:36:36.291Z,1006
2016-07-08T02:37:36.273Z,1006.01
2016-07-08T02:38:36.255Z,1006.02
2016-07-08T02:39:36.235Z,1005.96
2016-07-08T02:40:36.217Z,1005.99
2016-07-08T02:41:36.199Z,1005.95
2016-07-08T02:42:36.179Z,1005.94
2016-07-08T02:43:36.160Z,1005.88
2016-07-08T02:44:36.143Z,1005.87
2016-07-08T02:45:36.128Z,1005.89
2016-07-08T02:46:36.105Z,1005.82
2016-07-08T02:47:36.085Z,1005.89
2016-07-08T02:48:36.068Z,1005.83
2016-07-08T02:49:36.048Z,1005.89
2016-07-08T02:50:36.029Z,1005.86
2016-07-08T02:51:36.011Z,1005.82
2016-07-08T02:52:35.992Z,1005.79
2016-07-08T02:53:35.975Z,1005.8
2016-07-08T02:54:35.954Z,1005.79
2016-07-08T02:55:35.936Z,1005.78
2016-07-08T02:56:35.918Z,1005.83
2016-07-08T02:57:35.899Z,1005.83
2016-07-08T02:58:35.881Z,1005.86
2016-07-08T02:59:35.863Z,1005.89
2016-07-08T03:00:35.843Z,1005.92
2016-07-08T03:01:35.826Z,1005.91
2016-07-08T03:02:35.804Z,1005.87
2016-07-08T03:03:35.786Z,1005.88
2016-07-08T03:04:35.768Z,1005.84
2016-07-08T03:05:35.749Z,1005.88
2016-07-08T03:06:35.729Z,1005.84
2016-07-08T03:07:35.710Z,1005.83
2016-07-08T03:08:35.694Z,1005.88
2016-07-08T03:09:35.678Z,1005.84
2016-07-08T03:10:35.654Z,1005.82
2016-07-08T03:11:35.636Z,1005.8
2016-07-08T03:12:35.617Z,1005.79
2016-07-08T03:13:35.598Z,1005.74
2016-07-08T03:14:35.581Z,1005.72
2016-07-08T03:15:35.563Z,1005.74
2016-07-08T03:16:35.541Z,1005.75
2016-07-08T03:17:35.524Z,1005.77
2016-07-08T03:18:35.506Z,1005.72
2016-07-08T03:19:35.486Z,1005.73
2016-07-08T03:20:35.467Z,1005.66
2016-07-08T03:21:35.449Z,1005.66
2016-07-08T03:22:35.429Z,1005.65
2016-07-08T03:23:35.411Z,1005.69
2016-07-08T03:24:35.392Z,1005.65
2016-07-08T03:25:35.373Z,1005.67
2016-07-08T03:26:35.355Z,1005.68
2016-07-08T03:27:35.337Z,1005.68
2016-07-08T03:28:35.317Z,1005.65
2016-07-08T03:29:35.300Z,1005.61
2016-07-08T03:30:35.280Z,1005.64
2016-07-08T03:31:35.262Z,1005.62
2016-07-08T03:32:35.244Z,1005.59
2016-07-08T03:33:35.224Z,1005.53
2016-07-08T03:34:35.206Z,1005.52
2016-07-08T03:35:35.186Z,1005.57
2016-07-08T03:36:35.167Z,1005.51
2016-07-08T03:37:35.149Z,1005.51
2016-07-08T03:38:35.129Z,1005.53
2016-07-08T03:39:35.112Z,1005.48
2016-07-08T03:40:35.092Z,1005.49
2016-07-08T03:41:35.076Z,1005.49
2016-07-08T03:42:35.055Z,1005.48
2016-07-08T03:43:35.037Z,1005.48
2016-07-08T03:44:35.018Z,1005.47
2016-07-08T03:45:34.998Z,1005.37
2016-07-08T03:46:34.980Z,1005.38
2016-07-08T03:47:34.962Z,1005.35
2016-07-08T03:48:34.944Z,1005.32
2016-07-08T03:49:34.924Z,1005.3
2016-07-08T03:50:34.906Z,1005.31
2016-07-08T03:51:34.887Z,1005.3
2016-07-08T03:52:34.869Z,1005.33
2016-07-08T03:53:34.850Z,1005.28
2016-07-08T03:54:34.857Z,1005.3
2016-07-08T03:55:34.813Z,1005.33
2016-07-08T03:56:34.793Z,1005.25
2016-07-08T03:57:34.775Z,1005.27
2016-07-08T03:58:34.806Z,1005.25
2016-07-08T03:59:34.738Z,1005.28
2016-07-08T04:00:34.719Z,1005.3
2016-07-08T04:01:34.704Z,1005.28
2016-07-08T04:02:34.682Z,1005.29
2016-07-08T04:03:34.664Z,1005.29
2016-07-08T04:04:34.644Z,1005.3
2016-07-08T04:05:34.626Z,1005.32
2016-07-08T04:06:34.609Z,1005.34
2016-07-08T04:07:34.589Z,1005.33
2016-07-08T04:08:34.572Z,1005.34
2016-07-08T04:09:34.554Z,1005.33
2016-07-08T04:10:34.534Z,1005.37
2016-07-08T04:11:34.517Z,1005.34
2016-07-08T04:12:34.497Z,1005.36
2016-07-08T04:13:34.478Z,1005.3
2016-07-08T04:14:34.461Z,1005.3
2016-07-08T04:15:34.443Z,1005.3
2016-07-08T04:16:34.424Z,1005.23
2016-07-08T04:17:34.407Z,1005.22
2016-07-08T04:18:34.387Z,1005.25
2016-07-08T04:19:34.369Z,1005.23
2016-07-08T04:20:34.352Z,1005.19
2016-07-08T04:21:34.335Z,1005.2
2016-07-08T04:22:34.314Z,1005.18
2016-07-08T04:23:34.295Z,1005.19
2016-07-08T04:24:34.277Z,1005.19
2016-07-08T04:25:34.258Z,1005.23
2016-07-08T04:26:34.242Z,1005.2
2016-07-08T04:27:34.223Z,1005.19
2016-07-08T04:28:34.206Z,1005.19
2016-07-08T04:29:34.186Z,1005.14
2016-07-08T04:30:34.168Z,1005.14
2016-07-08T04:31:34.153Z,1005.17
2016-07-08T04:32:34.143Z,1005.13
2016-07-08T04:33:34.116Z,1005.13
2016-07-08T04:34:34.099Z,1005.09
2016-07-08T04:35:34.082Z,1005.12
2016-07-08T04:36:34.063Z,1005.08
2016-07-08T04:37:34.166Z,1005.07
2016-07-08T04:38:34.028Z,1005.07
2016-07-08T04:39:34.011Z,1005.03
2016-07-08T04:40:33.993Z,1005.05
2016-07-08T04:41:33.976Z,1005.01
2016-07-08T04:42:33.960Z,1005
2016-07-08T04:43:33.943Z,1004.97
2016-07-08T04:44:33.929Z,1004.95
2016-07-08T04:45:33.910Z,1004.94
2016-07-08T04:46:33.894Z,1004.95
2016-07-08T04:47:33.875Z,1004.95
2016-07-08T04:48:33.859Z,1004.91
2016-07-08T04:49:33.842Z,1004.87
2016-07-08T04:50:33.826Z,1004.81
2016-07-08T04:51:33.809Z,1004.78
2016-07-08T04:52:33.792Z,1004.82
2016-07-08T04:53:33.778Z,1004.83
2016-07-08T04:54:33.761Z,1004.79
2016-07-08T04:55:33.748Z,1004.8
2016-07-08T04:56:33.727Z,1004.81
2016-07-08T04:57:33.710Z,1004.83
2016-07-08T04:58:33.694Z,1004.82
2016-07-08T04:59:33.678Z,1004.87
2016-07-08T05:00:33.661Z,1004.85
2016-07-08T05:01:33.645Z,1004.86
2016-07-08T05:02:33.628Z,1004.85
2016-07-08T05:03:33.612Z,1004.8
2016-07-08T05:04:33.691Z,1004.8
2016-07-08T05:05:33.579Z,1004.79
2016-07-08T05:06:33.563Z,1004.77
2016-07-08T05:07:33.546Z,1004.73
2016-07-08T05:08:33.528Z,1004.75
2016-07-08T05:09:33.511Z,1004.75
2016-07-08T05:10:33.495Z,1004.77
2016-07-08T05:11:33.479Z,1004.81
2016-07-08T05:12:33.462Z,1004.8
2016-07-08T05:13:33.445Z,1004.86
2016-07-08T05:14:33.429Z,1004.78
2016-07-08T05:15:33.414Z,1004.74
2016-07-08T05:16:33.398Z,1004.71
2016-07-08T05:17:33.379Z,1004.7
2016-07-08T05:18:33.362Z,1004.73
2016-07-08T05:19:33.347Z,1004.69
2016-07-08T05:20:33.329Z,1004.65
2016-07-08T05:21:33.314Z,1004.68
2016-07-08T05:22:33.297Z,1004.67
2016-07-08T05:23:33.281Z,1004.67
2016-07-08T05:24:33.264Z,1004.63
2016-07-08T05:25:33.248Z,1004.65
2016-07-08T05:26:33.233Z,1004.66
2016-07-08T05:27:33.217Z,1004.68
2016-07-08T05:28:33.200Z,1004.71
2016-07-08T05:29:33.184Z,1004.69
2016-07-08T05:30:33.169Z,1004.68
2016-07-08T05:31:33.152Z,1004.73
2016-07-08T05:32:33.138Z,1004.71
2016-07-08T05:33:33.121Z,1004.75
2016-07-08T05:34:33.106Z,1004.71
2016-07-08T05:35:33.090Z,1004.73
2016-07-08T05:36:33.074Z,1004.69
2016-07-08T05:37:33.061Z,1004.69
2016-07-08T05:38:33.044Z,1004.68
2016-07-08T05:39:33.027Z,1004.66
2016-07-08T05:40:33.013Z,1004.67
2016-07-08T05:41:32.999Z,1004.64
2016-07-08T05:42:32.983Z,1004.66
2016-07-08T05:43:32.967Z,1004.7
2016-07-08T05:44:32.952Z,1004.71
2016-07-08T05:45:32.937Z,1004.72
2016-07-08T05:46:32.922Z,1004.75
2016-07-08T05:47:32.907Z,1004.76
2016-07-08T05:48:32.892Z,1004.75
2016-07-08T05:49:32.876Z,1004.8
2016-07-08T05:50:32.863Z,1004.78
2016-07-08T05:51:32.846Z,1004.82
2016-07-08T05:52:32.831Z,1004.81
2016-07-08T05:53:32.816Z,1004.82
2016-07-08T05:54:32.801Z,1004.83
2016-07-08T05:55:32.787Z,1004.83
2016-07-08T05:56:32.771Z,1004.82
2016-07-08T05:57:32.756Z,1004.83
2016-07-08T05:58:32.740Z,1004.82
2016-07-08T05:59:32.725Z,1004.84
2016-07-08T06:00:32.708Z,1004.83
2016-07-08T06:01:32.694Z,1004.79
2016-07-08T06:02:32.680Z,1004.83
2016-07-08T06:03:32.663Z,1004.81
2016-07-08T06:04:32.649Z,1004.81
2016-07-08T06:05:32.646Z,1004.78
2016-07-08T06:06:32.617Z,1004.8
2016-07-08T06:07:32.603Z,1004.75
2016-07-08T06:08:32.587Z,1004.74
2016-07-08T06:09:32.571Z,1004.78
2016-07-08T06:10:32.559Z,1004.76
2016-07-08T06:11:32.541Z,1004.74
2016-07-08T06:12:32.530Z,1004.69
2016-07-08T06:13:32.515Z,1004.69
2016-07-08T06:14:32.499Z,1004.65
2016-07-08T06:15:32.484Z,1004.63
2016-07-08T06:16:32.474Z,1004.61
2016-07-08T06:17:32.458Z,1004.68
2016-07-08T06:18:32.444Z,1004.62
2016-07-08T06:19:32.429Z,1004.64
2016-07-08T06:20:32.416Z,1004.55
2016-07-08T06:21:32.404Z,1004.55
2016-07-08T06:22:32.388Z,1004.55
2016-07-08T06:23:32.381Z,1004.52
2016-07-08T06:24:32.363Z,1004.51
2016-07-08T06:25:32.354Z,1004.51
2016-07-08T06:26:32.338Z,1004.53
2016-07-08T06:27:32.325Z,1004.54
2016-07-08T06:28:32.313Z,1004.56
2016-07-08T06:29:32.300Z,1004.51
2016-07-08T06:30:32.287Z,1004.55
2016-07-08T06:31:32.275Z,1004.55
2016-07-08T06:32:32.262Z,1004.54
2016-07-08T06:33:32.249Z,1004.56
2016-07-08T06:34:32.236Z,1004.51
2016-07-08T06:35:32.224Z,1004.51
2016-07-08T06:36:32.213Z,1004.51
2016-07-08T06:37:32.200Z,1004.49
2016-07-08T06:38:32.187Z,1004.49
2016-07-08T06:39:32.175Z,1004.47
2016-07-08T06:40:32.164Z,1004.45
2016-07-08T06:41:32.152Z,1004.45
2016-07-08T06:42:32.140Z,1004.41
2016-07-08T06:43:32.128Z,1004.43
2016-07-08T06:44:32.115Z,1004.45
2016-07-08T06:45:32.104Z,1004.44
2016-07-08T06:46:32.092Z,1004.43
2016-07-08T06:47:32.081Z,1004.43
2016-07-08T06:48:32.067Z,1004.44
2016-07-08T06:49:32.055Z,1004.47
2016-07-08T06:50:32.045Z,1004.47
2016-07-08T06:51:32.034Z,1004.48
2016-07-08T06:52:32.020Z,1004.52
2016-07-08T06:53:32.009Z,1004.51
2016-07-08T06:54:31.997Z,1004.48
2016-07-08T06:55:31.984Z,1004.47
2016-07-08T06:56:31.973Z,1004.5
2016-07-08T06:57:31.961Z,1004.5
2016-07-08T06:58:31.950Z,1004.49
2016-07-08T06:59:31.938Z,1004.48
2016-07-08T07:00:31.928Z,1004.5
2016-07-08T07:01:31.916Z,1004.49
2016-07-08T07:02:31.906Z,1004.47
2016-07-08T07:03:31.892Z,1004.46
2016-07-08T07:04:31.883Z,1004.49
2016-07-08T07:05:31.871Z,1004.47
2016-07-08T07:06:31.860Z,1004.43
2016-07-08T07:07:31.848Z,1004.46
2016-07-08T07:08:31.838Z,1004.46
2016-07-08T07:09:31.828Z,1004.44
2016-07-08T07:10:31.815Z,1004.43
2016-07-08T07:11:31.805Z,1004.45
2016-07-08T07:12:31.795Z,1004.48
2016-07-08T07:13:31.784Z,1004.44
2016-07-08T07:14:31.774Z,1004.41
2016-07-08T07:15:31.763Z,1004.37
2016-07-08T07:16:31.754Z,1004.38
2016-07-08T07:17:31.746Z,1004.38
2016-07-08T07:18:31.733Z,1004.32
2016-07-08T07:19:31.724Z,1004.36
2016-07-08T07:20:31.716Z,1004.39
2016-07-08T07:21:31.703Z,1004.35
2016-07-08T07:22:31.694Z,1004.33
2016-07-08T07:23:31.685Z,1004.34
2016-07-08T07:24:31.675Z,1004.36
2016-07-08T07:25:31.666Z,1004.29
2016-07-08T07:26:31.657Z,1004.34
2016-07-08T07:27:31.647Z,1004.32
2016-07-08T07:28:31.637Z,1004.33
2016-07-08T07:29:31.627Z,1004.34
2016-07-08T07:30:31.618Z,1004.31
2016-07-08T07:31:31.608Z,1004.3
2016-07-08T07:32:31.596Z,1004.35
2016-07-08T07:33:31.588Z,1004.33
2016-07-08T07:34:31.578Z,1004.3
2016-07-08T07:35:31.567Z,1004.33
2016-07-08T07:36:31.557Z,1004.34
2016-07-08T07:37:31.547Z,1004.33
2016-07-08T07:38:31.539Z,1004.3
2016-07-08T07:39:31.527Z,1004.3
2016-07-08T07:40:31.517Z,1004.33
2016-07-08T07:41:31.509Z,1004.28
2016-07-08T07:42:31.498Z,1004.28
2016-07-08T07:43:31.488Z,1004.3
2016-07-08T07:44:31.478Z,1004.28
2016-07-08T07:45:31.467Z,1004.3
2016-07-08T07:46:31.456Z,1004.3
2016-07-08T07:47:31.447Z,1004.3
2016-07-08T07:48:31.437Z,1004.28
2016-07-08T07:49:31.430Z,1004.28
2016-07-08T07:50:31.452Z,1004.27
2016-07-08T07:51:31.405Z,1004.28
2016-07-08T07:52:31.408Z,1004.26
2016-07-08T07:53:31.417Z,1004.23
2016-07-08T07:54:31.375Z,1004.22
2016-07-08T07:55:31.421Z,1004.17
2016-07-08T07:56:31.378Z,1004.2
2016-07-08T07:57:31.343Z,1004.2
2016-07-08T07:58:31.332Z,1004.2
2016-07-08T07:59:31.323Z,1004.17
2016-07-08T08:00:31.380Z,1004.24
2016-07-08T08:01:31.301Z,1004.23
2016-07-08T08:02:31.292Z,1004.25
2016-07-08T08:03:31.281Z,1004.23
2016-07-08T08:04:31.270Z,1004.25
2016-07-08T08:05:31.259Z,1004.18
2016-07-08T08:06:31.249Z,1004.13
2016-07-08T08:07:31.239Z,1004.11
2016-07-08T08:08:31.278Z,1004.08
2016-07-08T08:09:31.217Z,1004.07
2016-07-08T08:10:31.207Z,1004.03
2016-07-08T08:11:31.238Z,1004.03
2016-07-08T08:12:31.222Z,1004.04
2016-07-08T08:13:31.176Z,1004.08
2016-07-08T08:14:31.166Z,1004.11
2016-07-08T08:15:31.156Z,1004.12
2016-07-08T08:16:31.144Z,1004.07
2016-07-08T08:17:31.181Z,1004.03
2016-07-08T08:18:31.128Z,1004.06
2016-07-08T08:19:31.115Z,1004.06
2016-07-08T08:20:31.105Z,1004.08
2016-07-08T08:21:31.118Z,1004.03
2016-07-08T08:22:31.087Z,1004.04
2016-07-08T08:23:31.078Z,1004
2016-07-08T08:24:31.067Z,1003.97
2016-07-08T08:25:31.109Z,1003.96
2016-07-08T08:26:31.050Z,1003.98
2016-07-08T08:27:31.042Z,1004.01
2016-07-08T08:28:31.031Z,1004
2016-07-08T08:29:31.023Z,1004
2016-07-08T08:30:31.014Z,1004.02
2016-07-08T08:31:31.004Z,1003.99
2016-07-08T08:32:30.996Z,1004
2016-07-08T08:33:30.985Z,1004.01
2016-07-08T08:34:30.976Z,1004.06
2016-07-08T08:35:30.966Z,1004.09
2016-07-08T08:36:30.956Z,1004.01
2016-07-08T08:37:30.948Z,1004.02
2016-07-08T08:38:30.936Z,1004.07
2016-07-08T08:39:30.926Z,1004.02
2016-07-08T08:40:30.919Z,1004.04
2016-07-08T08:41:30.905Z,1004
2016-07-08T08:42:30.895Z,1003.99
2016-07-08T08:43:30.945Z,1004.01
2016-07-08T08:44:30.874Z,1003.97
2016-07-08T08:45:30.862Z,1003.99
2016-07-08T08:46:30.854Z,1004.06
2016-07-08T08:47:30.854Z,1004.11
2016-07-08T08:48:30.830Z,1004.1
2016-07-08T08:49:30.820Z,1004.11
2016-07-08T08:50:30.850Z,1004.14
2016-07-08T08:51:30.848Z,1004.13
2016-07-08T08:52:30.786Z,1004.16
2016-07-08T08:53:30.784Z,1004.14
2016-07-08T08:54:30.764Z,1004.14
2016-07-08T08:55:30.810Z,1004.17
2016-07-08T08:56:30.744Z,1004.16
2016-07-08T08:57:30.732Z,1004.18
2016-07-08T08:58:30.750Z,1004.19
2016-07-08T08:59:30.710Z,1004.21
2016-07-08T09:00:30.711Z,1004.11
2016-07-08T09:01:30.722Z,1004.11
2016-07-08T09:02:30.737Z,1004.12
2016-07-08T09:03:30.666Z,1004.05
2016-07-08T09:04:30.655Z,1004.01
2016-07-08T09:05:30.668Z,1004.02
2016-07-08T09:06:30.634Z,1004.08
2016-07-08T09:07:30.622Z,1004.04
2016-07-08T09:08:30.670Z,1004.09
2016-07-08T09:09:30.603Z,1004.11
2016-07-08T09:10:30.636Z,1004.09
2016-07-08T09:11:30.584Z,1004.01
2016-07-08T09:12:30.628Z,1003.97
2016-07-08T09:13:30.562Z,1004.01
2016-07-08T09:14:30.577Z,1003.99
2016-07-08T09:15:30.543Z,1003.94
2016-07-08T09:16:30.534Z,1003.94
2016-07-08T09:17:30.532Z,1003.95
2016-07-08T09:18:30.514Z,1003.92
2016-07-08T09:19:30.505Z,1003.94
2016-07-08T09:20:30.496Z,1003.96
2016-07-08T09:21:30.484Z,1003.85
2016-07-08T09:22:30.476Z,1003.9
2016-07-08T09:23:30.466Z,1003.98
2016-07-08T09:24:30.456Z,1003.97
2016-07-08T09:25:30.446Z,1003.89
2016-07-08T09:26:30.436Z,1003.92
2016-07-08T09:27:30.427Z,1004.01
2016-07-08T09:28:30.418Z,1003.94
2016-07-08T09:29:30.408Z,1003.92
2016-07-08T09:30:30.398Z,1003.95
2016-07-08T09:31:30.389Z,1003.97
2016-07-08T09:32:30.378Z,1004
2016-07-08T09:33:30.370Z,1004
2016-07-08T09:34:30.361Z,1004.07
2016-07-08T09:35:30.350Z,1004.07
2016-07-08T09:36:30.342Z,1003.97
2016-07-08T09:37:30.331Z,1003.93
2016-07-08T09:38:30.322Z,1003.92
2016-07-08T09:39:30.312Z,1003.94
2016-07-08T09:40:30.302Z,1003.93
2016-07-08T09:41:30.293Z,1003.93
2016-07-08T09:42:30.284Z,1003.94
2016-07-08T09:43:30.274Z,1003.94
2016-07-08T09:44:30.263Z,1003.92
2016-07-08T09:45:30.254Z,1003.96
2016-07-08T09:46:30.251Z,1003.95
2016-07-08T09:47:30.235Z,1003.96
2016-07-08T09:48:30.230Z,1003.91
2016-07-08T09:49:30.218Z,1003.94
2016-07-08T09:50:30.210Z,1003.87
2016-07-08T09:51:30.201Z,1003.9
2016-07-08T09:52:30.190Z,1003.87
2016-07-08T09:53:30.182Z,1003.94
2016-07-08T09:54:30.174Z,1003.86
2016-07-08T09:55:30.165Z,1003.85
2016-07-08T09:56:30.155Z,1003.87
2016-07-08T09:57:30.146Z,1003.63
2016-07-08T09:58:30.137Z,1003.87
2016-07-08T09:59:30.134Z,1003.9
2016-07-08T10:00:30.122Z,1003.93
2016-07-08T10:01:30.114Z,1003.97
2016-07-08T10:02:30.103Z,1003.91
2016-07-08T10:03:30.099Z,1003.98
2016-07-08T10:04:30.089Z,1003.91
2016-07-08T10:05:30.080Z,1003.87
2016-07-08T10:06:30.072Z,1003.96
2016-07-08T10:07:30.065Z,1004.05
2016-07-08T10:08:30.061Z,1003.8
2016-07-08T10:09:30.049Z,1003.9
2016-07-08T10:10:30.041Z,1003.94
2016-07-08T10:11:30.033Z,1003.89
2016-07-08T10:12:30.025Z,1003.92
2016-07-08T10:13:30.016Z,1003.95
2016-07-08T10:14:30.009Z,1003.6
2016-07-08T10:15:30.002Z,1003.86
2016-07-08T10:16:29.994Z,1003.95
2016-07-08T10:17:29.985Z,1004.05
2016-07-08T10:18:29.978Z,1003.87
2016-07-08T10:19:29.972Z,1003.96
2016-07-08T10:20:30.480Z,1003.92
2016-07-08T10:21:30.229Z,1004.01
2016-07-08T10:22:30.220Z,1003.92
2016-07-08T10:23:30.543Z,1003.88
2016-07-08T10:24:30.195Z,1003.83
2016-07-08T10:25:29.925Z,1003.79
2016-07-08T10:26:29.918Z,1003.81
2016-07-08T10:27:29.908Z,1003.91
2016-07-08T10:28:29.901Z,1003.72
2016-07-08T10:29:29.893Z,1003.91
2016-07-08T10:30:29.886Z,1003.84
2016-07-08T10:31:29.876Z,1003.8
2016-07-08T10:32:29.869Z,1003.85
2016-07-08T10:33:29.859Z,1003.85
2016-07-08T10:34:29.852Z,1003.77
2016-07-08T10:35:29.856Z,1003.81
2016-07-08T10:36:29.835Z,1003.73
2016-07-08T10:37:29.827Z,1003.78
2016-07-08T10:38:29.817Z,1003.77
2016-07-08T10:39:29.810Z,1003.76
2016-07-08T10:40:29.802Z,1003.76
2016-07-08T10:41:29.792Z,1003.83
2016-07-08T10:42:29.783Z,1003.81
2016-07-08T10:43:29.776Z,1003.76
2016-07-08T10:44:29.767Z,1003.77
2016-07-08T10:45:29.758Z,1003.84
2016-07-08T10:46:29.750Z,1003.77
2016-07-08T10:47:29.761Z,1003.68
2016-07-08T10:48:29.734Z,1003.81
2016-07-08T10:49:29.725Z,1003.87
2016-07-08T10:50:29.720Z,1003.86
2016-07-08T10:51:29.712Z,1003.97
2016-07-08T10:52:29.705Z,1003.85
2016-07-08T10:53:29.694Z,1003.92
2016-07-08T10:54:29.687Z,1003.83
2016-07-08T10:55:29.681Z,1003.83
2016-07-08T10:56:29.673Z,1004.09
2016-07-08T10:57:29.668Z,1003.88
2016-07-08T10:58:29.657Z,1003.76
2016-07-08T10:59:29.649Z,1003.84
2016-07-08T11:00:29.643Z,1003.91
2016-07-08T11:01:29.635Z,1003.9
2016-07-08T11:02:29.627Z,1003.79
2016-07-08T11:03:29.619Z,1003.88
2016-07-08T11:04:29.612Z,1003.98
2016-07-08T11:05:29.604Z,1004.03
2016-07-08T11:06:29.596Z,1004.03
2016-07-08T11:07:29.588Z,1003.95
2016-07-08T11:08:29.580Z,1003.99
2016-07-08T11:09:29.573Z,1004.07
2016-07-08T11:10:29.565Z,1004.06
2016-07-08T11:11:29.556Z,1004.08
2016-07-08T11:12:29.549Z,1003.96
2016-07-08T11:13:29.542Z,1004.18
2016-07-08T11:14:29.533Z,1004.23
2016-07-08T11:15:29.525Z,1004.16
2016-07-08T11:16:29.517Z,1004.15
2016-07-08T11:17:29.514Z,1004.1
2016-07-08T11:18:29.500Z,1004.15
2016-07-08T11:19:29.494Z,1004.28
2016-07-08T11:20:29.528Z,1004.2
2016-07-08T11:21:29.537Z,1004.09
2016-07-08T11:22:29.478Z,1004.2
2016-07-08T11:23:29.463Z,1004.23
2016-07-08T11:24:29.507Z,1004.19
2016-07-08T11:25:29.497Z,1004.07
2016-07-08T11:26:29.447Z,1004.14
2016-07-08T11:27:29.436Z,1004.13
2016-07-08T11:28:29.431Z,1004.11
2016-07-08T11:29:29.423Z,1004.18
2016-07-08T11:30:29.419Z,1004.22
2016-07-08T11:31:29.413Z,1004.12
2016-07-08T11:32:29.408Z,1004.12
2016-07-08T11:33:29.404Z,1004.23
2016-07-08T11:34:29.434Z,1004.26
2016-07-08T11:35:29.391Z,1004.23
2016-07-08T11:36:29.385Z,1004.27
2016-07-08T11:37:29.379Z,1004.21
2016-07-08T11:38:29.758Z,1004.24
2016-07-08T11:39:29.369Z,1004.3
2016-07-08T11:40:29.369Z,1004.33
2016-07-08T11:41:29.356Z,1004.28
2016-07-08T11:42:29.376Z,1004.14
2016-07-08T11:43:29.344Z,1004.34
2016-07-08T11:44:29.342Z,1004.21
2016-07-08T11:45:29.331Z,1004.36
2016-07-08T11:46:29.326Z,1004.28
2016-07-08T11:47:29.319Z,1004.31
2016-07-08T11:48:29.311Z,1004.31
2016-07-08T11:49:29.304Z,1004.22
2016-07-08T11:50:29.321Z,1004.23
2016-07-08T11:51:29.291Z,1004.39
2016-07-08T11:52:29.286Z,1004.26
2016-07-08T11:53:29.280Z,1004.23
2016-07-08T11:54:29.273Z,1004.26
2016-07-08T11:55:29.267Z,1004.21
2016-07-08T11:56:29.258Z,1004.24
2016-07-08T11:57:29.263Z,1004.42
2016-07-08T11:58:29.336Z,1004.2
2016-07-08T11:59:29.247Z,1004.2
2016-07-08T12:00:29.237Z,1004.23
2016-07-08T12:01:29.228Z,1004.24
2016-07-08T12:02:29.221Z,1004.3
2016-07-08T12:03:29.213Z,1004.18
2016-07-08T12:04:29.208Z,1004.21
2016-07-08T12:05:29.203Z,1004.09
2016-07-08T12:06:29.197Z,1004.16
2016-07-08T12:07:29.192Z,1004.11
2016-07-08T12:08:29.187Z,1004.14